Time;durP1;ratioP1;P1;durP2;ratioP2;P2;SDS_P1;SDS_P2;PMS_P1;PMS_P2;Temp;Humidity;BMP_temperature;BMP_pressure;BME280_temperature;BME280_humidity;BME280_pressure;Samples;Min_cycle;Max_cycle;Signal;HPM_P1;HPM_P2
2023/03/27 00:00:19;;;;;;;8.70;2.00;;;3.90;96.40;;;;;;6110195;23;20762;-68
2023/03/27 00:02:48;;;;;;;5.93;2.13;;;3.90;96.70;;;;;;6074107;23;20499;-68
2023/03/27 00:05:15;;;;;;;10.87;2.30;;;3.80;97.10;;;;;;6110119;23;20400;-68
2023/03/27 00:07:41;;;;;;;6.83;1.67;;;3.70;97.30;;;;;;6110084;23;20373;-68
2023/03/27 00:10:08;;;;;;;6.20;1.70;;;3.80;97.20;;;;;;6109939;23;20416;-68
2023/03/27 00:12:34;;;;;;;10.63;2.10;;;3.70;97.80;;;;;;6109014;23;20749;-69
2023/03/27 00:15:00;;;;;;;11.17;2.70;;;3.70;97.30;;;;;;6110134;23;20419;-68
2023/03/27 00:17:26;;;;;;;7.80;1.90;;;3.70;97.70;;;;;;6110021;23;20141;-68
2023/03/27 00:19:52;;;;;;;13.33;2.43;;;3.60;97.90;;;;;;6109944;23;20368;-67
2023/03/27 00:22:18;;;;;;;10.67;2.20;;;3.60;97.60;;;;;;6110119;23;20168;-67
2023/03/27 00:24:44;;;;;;;15.03;2.83;;;3.60;98.10;;;;;;6110103;23;20650;-68
2023/03/27 00:27:10;;;;;;;10.50;3.20;;;3.50;98.40;;;;;;6109808;23;20636;-69
2023/03/27 00:29:36;;;;;;;6.77;1.83;;;3.50;98.50;;;;;;6104268;23;20467;-68
2023/03/27 00:32:02;;;;;;;6.37;1.93;;;3.50;98.40;;;;;;6112836;23;20425;-71
2023/03/27 00:34:29;;;;;;;14.10;2.87;;;3.40;99.00;;;;;;6102481;23;20387;-69
2023/03/27 00:36:54;;;;;;;8.77;2.03;;;3.40;99.50;;;;;;6115047;23;20457;-68
2023/03/27 00:39:20;;;;;;;16.80;3.10;;;3.30;99.90;;;;;;6114550;23;20388;-68
2023/03/27 00:41:47;;;;;;;7.40;2.67;;;3.20;99.90;;;;;;6114075;23;20172;-69
2023/03/27 00:44:23;;;;;;;10.20;2.90;;;3.20;99.90;;;;;;6111889;23;20156;-69
2023/03/27 00:46:50;;;;;;;6.13;2.20;;;3.20;99.90;;;;;;6113298;23;20428;-68
2023/03/27 00:49:16;;;;;;;6.93;2.40;;;3.10;99.90;;;;;;6112195;23;20388;-68
2023/03/27 00:51:45;;;;;;;8.80;2.47;;;3.10;99.90;;;;;;6112950;23;20396;-68
2023/03/27 00:54:15;;;;;;;11.67;2.40;;;3.10;99.90;;;;;;6112901;23;20416;-68
2023/03/27 00:56:41;;;;;;;9.87;2.50;;;3.10;99.90;;;;;;6101809;23;20381;-67
2023/03/27 00:59:15;;;;;;;13.80;2.33;;;3.00;99.90;;;;;;6101951;23;20403;-68
2023/03/27 01:01:43;;;;;;;7.60;2.10;;;3.10;99.90;;;;;;6103298;23;20404;-69
2023/03/27 01:04:09;;;;;;;7.53;1.80;;;3.00;99.90;;;;;;6103286;23;20452;-68
2023/03/27 01:06:35;;;;;;;9.40;2.33;;;2.90;99.90;;;;;;6112776;23;20777;-68
2023/03/27 01:09:03;;;;;;;10.53;4.43;;;2.90;99.90;;;;;;6125720;23;20206;-69
2023/03/27 01:11:56;;;;;;;5.83;1.70;;;2.70;99.90;;;;;;6112300;23;20517;-70
2023/03/27 01:14:35;;;;;;;8.50;2.03;;;2.80;99.90;;;;;;6111970;23;20747;-67
2023/03/27 01:17:29;;;;;;;6.97;1.97;;;2.70;99.90;;;;;;6103275;23;20388;-68
2023/03/27 01:19:58;;;;;;;12.90;2.23;;;2.70;99.90;;;;;;6077148;23;20679;-68
2023/03/27 01:22:38;;;;;;;7.80;2.40;;;2.70;99.90;;;;;;6100364;23;20860;-68
2023/03/27 01:25:26;;;;;;;10.47;2.23;;;2.70;99.90;;;;;;6113141;23;20361;-67
2023/03/27 01:28:04;;;;;;;9.43;2.00;;;2.60;99.90;;;;;;6103497;23;20384;-68
2023/03/27 01:30:33;;;;;;;3.90;2.00;;;2.60;99.90;;;;;;6104024;23;20387;-68
2023/03/27 01:33:39;;;;;;;12.17;2.60;;;2.60;99.90;;;;;;6105591;23;20526;-67
2023/03/27 01:36:20;;;;;;;7.17;2.07;;;2.50;99.90;;;;;;6084795;23;20384;-67
2023/03/27 01:39:07;;;;;;;5.53;1.80;;;2.50;99.90;;;;;;6101491;23;20383;-68
2023/03/27 01:41:52;;;;;;;8.47;1.70;;;2.50;99.90;;;;;;6103871;23;20428;-68
2023/03/27 01:44:30;;;;;;;17.40;2.60;;;2.40;99.90;;;;;;6101898;23;20452;-68
2023/03/27 01:47:08;;;;;;;7.67;1.57;;;2.50;99.90;;;;;;6100660;23;20376;-68
2023/03/27 01:49:40;;;;;;;9.03;2.60;;;2.40;99.90;;;;;;6112982;23;20439;-68
2023/03/27 01:52:18;;;;;;;5.13;1.50;;;2.50;99.90;;;;;;6102076;23;20428;-68
2023/03/27 01:54:52;;;;;;;10.87;2.40;;;2.60;99.90;;;;;;6102244;23;20385;-66
2023/03/27 01:57:23;;;;;;;10.43;2.47;;;2.50;99.90;;;;;;6110657;23;20360;-68
2023/03/27 01:59:58;;;;;;;5.47;1.73;;;2.40;99.90;;;;;;6124802;23;20407;-67
2023/03/27 02:02:30;;;;;;;10.07;1.97;;;2.30;99.90;;;;;;6111900;23;20824;-68
2023/03/27 02:05:05;;;;;;;6.40;1.80;;;2.30;99.90;;;;;;6109894;23;20726;-68
2023/03/27 02:07:41;;;;;;;5.93;2.70;;;2.30;99.90;;;;;;6107266;23;20467;-67
2023/03/27 02:10:11;;;;;;;11.87;2.10;;;2.30;99.90;;;;;;6114203;23;20431;-69
2023/03/27 02:12:44;;;;;;;9.43;2.30;;;2.30;99.90;;;;;;6100369;23;20451;-67
2023/03/27 02:15:19;;;;;;;6.63;2.23;;;2.40;99.90;;;;;;6111844;23;20376;-68
2023/03/27 02:17:51;;;;;;;9.67;1.50;;;2.40;99.90;;;;;;6100381;23;20383;-68
2023/03/27 02:20:18;;;;;;;6.37;1.90;;;2.30;99.90;;;;;;6101113;23;20420;-68
2023/03/27 02:22:47;;;;;;;7.27;1.60;;;2.30;99.90;;;;;;6100562;23;20694;-68
2023/03/27 02:25:21;;;;;;;8.33;1.97;;;2.30;99.90;;;;;;6100515;23;20471;-69
2023/03/27 02:27:50;;;;;;;6.63;1.90;;;2.40;99.90;;;;;;6101867;23;20645;-68
2023/03/27 02:30:28;;;;;;;7.77;1.77;;;2.50;99.90;;;;;;6125100;23;20407;-67
2023/03/27 02:33:13;;;;;;;8.40;2.10;;;2.40;99.90;;;;;;6101417;23;20428;-68
2023/03/27 02:36:20;;;;;;;6.00;2.03;;;2.40;99.90;;;;;;6100898;23;20627;-68
2023/03/27 02:39:03;;;;;;;7.00;2.30;;;2.40;99.90;;;;;;6102397;23;20750;-69
2023/03/27 02:41:50;;;;;;;6.10;1.80;;;2.30;99.90;;;;;;6101950;23;20409;-69
2023/03/27 02:44:36;;;;;;;9.40;1.90;;;2.20;99.90;;;;;;6102402;23;20372;-68
2023/03/27 02:47:36;;;;;;;14.23;3.17;;;2.20;99.90;;;;;;6103197;23;20377;-68
2023/03/27 02:50:27;;;;;;;9.80;2.10;;;2.30;99.90;;;;;;6113402;23;20691;-68
2023/03/27 02:53:01;;;;;;;10.17;2.60;;;2.20;99.90;;;;;;6111994;23;20503;-71
2023/03/27 02:55:36;;;;;;;10.93;1.90;;;2.10;99.90;;;;;;6111822;23;20424;-68
2023/03/27 02:58:06;;;;;;;6.90;1.93;;;2.20;99.90;;;;;;6126550;23;20404;-70
2023/03/27 03:00:47;;;;;;;8.80;1.80;;;2.20;99.90;;;;;;6112138;23;20909;-68
2023/03/27 03:03:52;;;;;;;6.83;1.80;;;2.10;99.90;;;;;;6105902;23;20381;-68
2023/03/27 03:06:36;;;;;;;3.47;1.57;;;2.20;99.90;;;;;;6102302;23;20396;-68
2023/03/27 03:09:05;;;;;;;6.10;1.60;;;2.20;99.90;;;;;;6102587;23;20577;-68
2023/03/27 03:11:43;;;;;;;8.53;2.50;;;2.30;99.90;;;;;;6113992;23;20562;-68
2023/03/27 03:14:09;;;;;;;7.90;1.90;;;2.20;99.90;;;;;;6113353;23;20372;-67
2023/03/27 03:16:35;;;;;;;8.93;2.20;;;2.20;99.90;;;;;;6102621;23;20505;-68
2023/03/27 03:19:01;;;;;;;7.10;2.10;;;2.20;99.90;;;;;;6102492;23;20133;-69
2023/03/27 03:21:27;;;;;;;7.00;2.43;;;2.20;99.90;;;;;;6102655;23;20675;-68
2023/03/27 03:23:53;;;;;;;11.57;2.77;;;2.10;99.90;;;;;;6102438;23;20479;-69
2023/03/27 03:26:20;;;;;;;10.97;1.90;;;2.10;99.90;;;;;;6102364;23;20149;-69
2023/03/27 03:28:46;;;;;;;9.23;2.07;;;2.00;99.90;;;;;;6102732;23;20433;-68
2023/03/27 03:31:13;;;;;;;6.03;1.93;;;2.00;99.90;;;;;;6102177;23;20435;-70
2023/03/27 03:33:39;;;;;;;8.13;1.80;;;2.00;99.90;;;;;;6101085;23;20428;-67
2023/03/27 03:36:05;;;;;;;6.97;1.80;;;1.90;99.90;;;;;;6103015;23;20442;-67
2023/03/27 03:38:37;;;;;;;9.10;1.70;;;1.90;99.90;;;;;;6102346;23;20157;-69
2023/03/27 03:41:05;;;;;;;8.27;2.03;;;1.80;99.90;;;;;;6103571;23;20524;-68
2023/03/27 03:43:31;;;;;;;5.57;1.70;;;1.80;99.90;;;;;;6101412;23;20407;-68
2023/03/27 03:45:59;;;;;;;7.10;1.90;;;1.80;99.90;;;;;;6102917;23;20392;-68
2023/03/27 03:48:25;;;;;;;5.83;1.47;;;1.80;99.90;;;;;;6055960;23;20481;-70
2023/03/27 03:50:51;;;;;;;13.03;2.80;;;1.70;99.90;;;;;;6127242;23;20388;-68
2023/03/27 03:53:19;;;;;;;19.60;2.63;;;1.80;99.90;;;;;;6102214;23;20527;-68
2023/03/27 03:55:47;;;;;;;2.90;1.70;;;1.90;99.90;;;;;;6102902;23;20160;-68
2023/03/27 03:58:13;;;;;;;7.50;2.30;;;1.90;99.90;;;;;;6110148;23;20464;-68
2023/03/27 04:00:39;;;;;;;5.37;1.70;;;1.80;99.90;;;;;;6104567;23;20830;-68
2023/03/27 04:03:13;;;;;;;4.93;1.63;;;1.70;99.90;;;;;;6080160;23;20722;-69
2023/03/27 04:05:39;;;;;;;11.00;2.17;;;1.60;99.90;;;;;;6102157;23;20388;-69
2023/03/27 04:08:08;;;;;;;9.23;1.83;;;1.60;99.90;;;;;;6101624;23;20396;-68
2023/03/27 04:10:53;;;;;;;6.73;2.60;;;1.60;99.90;;;;;;6113591;23;20163;-68
2023/03/27 04:13:39;;;;;;;7.63;1.60;;;1.60;99.90;;;;;;6103488;23;20706;-68
2023/03/27 04:16:15;;;;;;;5.07;1.80;;;1.50;99.90;;;;;;6126295;23;20659;-68
2023/03/27 04:18:49;;;;;;;8.93;2.17;;;1.50;99.90;;;;;;6101245;23;20472;-67
2023/03/27 04:21:17;;;;;;;6.10;1.80;;;1.50;99.90;;;;;;6101440;23;20420;-68
2023/03/27 04:23:45;;;;;;;3.63;1.63;;;1.50;99.90;;;;;;6101614;23;20655;-67
2023/03/27 04:26:14;;;;;;;5.10;1.83;;;1.50;99.90;;;;;;6126225;23;20169;-68
2023/03/27 04:29:09;;;;;;;8.50;2.20;;;1.40;99.90;;;;;;6066186;23;20427;-69
2023/03/27 04:31:54;;;;;;;6.77;2.30;;;1.50;99.90;;;;;;6112444;23;20515;-69
2023/03/27 04:34:39;;;;;;;6.67;2.40;;;1.40;99.90;;;;;;6112040;23;20375;-69
2023/03/27 04:37:17;;;;;;;12.00;2.93;;;1.50;99.90;;;;;;6100540;23;20395;-68
2023/03/27 04:39:57;;;;;;;8.60;2.30;;;1.50;99.90;;;;;;6103578;23;20392;-68
2023/03/27 04:42:23;;;;;;;7.60;2.10;;;1.50;99.90;;;;;;6100945;23;20540;-68
2023/03/27 04:44:51;;;;;;;8.97;1.70;;;1.40;99.90;;;;;;6101829;23;20381;-68
2023/03/27 04:47:17;;;;;;;8.23;2.43;;;1.40;99.90;;;;;;6101048;23;20208;-67
2023/03/27 04:49:46;;;;;;;7.90;2.20;;;1.40;99.90;;;;;;6102195;23;20392;-68
2023/03/27 04:52:18;;;;;;;11.77;2.87;;;1.40;99.90;;;;;;6081650;23;20516;-68
2023/03/27 04:54:45;;;;;;;6.00;2.17;;;1.30;99.90;;;;;;6105516;23;20393;-69
2023/03/27 04:57:11;;;;;;;5.90;2.37;;;1.40;99.90;;;;;;6105420;23;20380;-68
2023/03/27 04:59:37;;;;;;;7.97;2.17;;;1.30;99.90;;;;;;6104166;23;20397;-70
2023/03/27 05:02:21;;;;;;;4.23;1.97;;;1.30;99.90;;;;;;6114924;23;20778;-69
2023/03/27 05:04:57;;;;;;;7.17;2.10;;;1.20;99.90;;;;;;6104805;23;20399;-68
2023/03/27 05:07:29;;;;;;;7.80;2.07;;;1.20;99.90;;;;;;6114860;23;20380;-71
2023/03/27 05:09:56;;;;;;;5.20;1.70;;;1.20;99.90;;;;;;6103465;23;20742;-69
2023/03/27 05:12:27;;;;;;;10.73;2.87;;;1.20;99.90;;;;;;6105464;23;20409;-68
2023/03/27 05:14:58;;;;;;;6.00;2.60;;;1.20;99.90;;;;;;6103289;23;20484;-69
2023/03/27 05:17:39;;;;;;;5.93;2.30;;;1.20;99.90;;;;;;6102243;23;20389;-69
2023/03/27 05:20:07;;;;;;;8.43;2.53;;;1.20;99.90;;;;;;6079833;23;20393;-69
2023/03/27 05:22:34;;;;;;;8.27;2.53;;;1.30;99.90;;;;;;6080256;23;20420;-69
2023/03/27 05:25:13;;;;;;;6.73;2.60;;;1.30;99.90;;;;;;6103947;23;20388;-69
2023/03/27 05:27:49;;;;;;;6.47;2.70;;;1.30;99.90;;;;;;6108532;23;20381;-68
2023/03/27 05:30:18;;;;;;;12.47;2.63;;;1.30;99.90;;;;;;6111483;23;20388;-69
2023/03/27 05:32:50;;;;;;;6.00;2.20;;;1.40;99.90;;;;;;6107740;23;20627;-71
2023/03/27 05:35:23;;;;;;;11.23;3.43;;;1.40;99.90;;;;;;6107493;23;20419;-70
2023/03/27 05:37:52;;;;;;;8.30;2.83;;;1.50;99.90;;;;;;6105168;23;20399;-70
2023/03/27 05:40:38;;;;;;;6.47;2.50;;;1.60;99.90;;;;;;6132116;23;20389;-71
2023/03/27 05:43:04;;;;;;;12.50;3.17;;;1.70;99.90;;;;;;6107389;23;20414;-70
2023/03/27 05:45:32;;;;;;;7.83;2.90;;;1.80;99.90;;;;;;6105311;23;20393;-71
2023/03/27 05:48:00;;;;;;;9.37;2.67;;;1.80;99.90;;;;;;6112190;23;20570;-69
2023/03/27 05:50:32;;;;;;;8.50;2.60;;;2.00;99.90;;;;;;6131849;23;20463;-68
2023/03/27 05:53:06;;;;;;;8.90;3.00;;;2.10;99.90;;;;;;6109689;23;20436;-70
2023/03/27 05:55:36;;;;;;;6.20;3.30;;;2.40;99.90;;;;;;6107579;23;20512;-69
2023/03/27 05:58:04;;;;;;;8.67;2.93;;;2.50;99.90;;;;;;6110263;23;20420;-70
2023/03/27 06:00:33;;;;;;;6.17;2.80;;;2.70;99.90;;;;;;6106613;23;20388;-70
2023/03/27 06:03:00;;;;;;;13.63;4.67;;;2.90;99.90;;;;;;6106236;23;20511;-70
2023/03/27 06:05:47;;;;;;;7.37;2.90;;;3.00;99.90;;;;;;6108142;23;20423;-71
2023/03/27 06:08:15;;;;;;;12.40;3.97;;;3.20;99.90;;;;;;6118447;23;20821;-70
2023/03/27 06:10:42;;;;;;;7.33;3.33;;;3.30;99.90;;;;;;6106795;23;20400;-69
2023/03/27 06:13:19;;;;;;;8.07;2.90;;;3.60;99.90;;;;;;6104943;23;20420;-70
2023/03/27 06:15:56;;;;;;;7.70;4.00;;;3.80;99.90;;;;;;6104827;23;20416;-70
2023/03/27 06:18:40;;;;;;;14.13;3.53;;;3.90;99.90;;;;;;6116416;23;20630;-72
2023/03/27 06:21:07;;;;;;;8.90;3.93;;;4.00;99.90;;;;;;6110600;23;20376;-69
2023/03/27 06:23:33;;;;;;;11.47;2.47;;;4.10;99.90;;;;;;6107029;23;20383;-70
2023/03/27 06:25:59;;;;;;;8.60;2.50;;;4.10;99.90;;;;;;6118696;23;20137;-71
2023/03/27 06:28:27;;;;;;;4.53;2.97;;;4.10;99.90;;;;;;6114042;23;20403;-70
2023/03/27 06:30:53;;;;;;;11.43;3.10;;;4.10;99.90;;;;;;6114755;23;20817;-71
2023/03/27 06:33:33;;;;;;;11.10;2.60;;;4.00;99.90;;;;;;6083394;23;20868;-69
2023/03/27 06:36:04;;;;;;;3.83;2.30;;;4.00;99.90;;;;;;6106568;23;20389;-72
2023/03/27 06:38:32;;;;;;;10.33;3.43;;;4.00;99.90;;;;;;6106415;23;20380;-71
2023/03/27 06:40:59;;;;;;;10.23;3.23;;;4.00;99.90;;;;;;6108636;23;20380;-71
2023/03/27 06:43:40;;;;;;;6.33;2.53;;;4.20;99.90;;;;;;6109221;23;20500;-69
2023/03/27 06:46:13;;;;;;;9.40;3.13;;;4.40;99.90;;;;;;6111136;23;20397;-69
2023/03/27 06:49:04;;;;;;;10.90;2.80;;;4.60;99.90;;;;;;6111786;23;20417;-70
2023/03/27 06:51:30;;;;;;;9.90;3.00;;;4.70;99.90;;;;;;6144216;23;20430;-71
2023/03/27 06:53:55;;;;;;;7.77;2.43;;;4.80;99.90;;;;;;6121609;23;20224;-71
2023/03/27 06:56:22;;;;;;;6.17;2.40;;;4.80;99.90;;;;;;6108580;23;20164;-71
2023/03/27 06:59:20;;;;;;;10.10;2.77;;;4.80;99.90;;;;;;6115368;23;20423;-71
2023/03/27 07:01:51;;;;;;;8.17;2.70;;;4.60;99.90;;;;;;6109893;23;20415;-72
2023/03/27 07:04:22;;;;;;;9.40;2.40;;;4.50;99.90;;;;;;6094841;23;20662;-70
2023/03/27 07:07:06;;;;;;;6.53;1.97;;;4.30;99.90;;;;;;6117944;23;20388;-71
2023/03/27 07:09:37;;;;;;;6.20;2.30;;;4.30;99.90;;;;;;6118692;23;20365;-71
2023/03/27 07:12:05;;;;;;;11.57;2.30;;;4.30;99.90;;;;;;6084271;23;20857;-70
2023/03/27 07:14:32;;;;;;;9.83;2.67;;;4.40;99.90;;;;;;6108458;23;20400;-72
2023/03/27 07:16:59;;;;;;;8.03;3.20;;;4.30;99.90;;;;;;6108651;23;20384;-70
2023/03/27 07:19:30;;;;;;;6.47;2.40;;;4.30;99.90;;;;;;6111025;23;20227;-71
2023/03/27 07:22:04;;;;;;;3.80;2.50;;;4.50;99.90;;;;;;6119128;23;20420;-72
2023/03/27 07:24:32;;;;;;;6.00;3.17;;;4.50;99.90;;;;;;6111963;23;20383;-71
2023/03/27 07:26:58;;;;;;;7.90;2.30;;;4.70;99.90;;;;;;6114132;23;20408;-70
2023/03/27 07:29:30;;;;;;;6.40;1.93;;;4.80;99.90;;;;;;6113348;23;20392;-70
2023/03/27 07:31:56;;;;;;;5.70;2.10;;;4.80;99.90;;;;;;6121107;23;20450;-72
2023/03/27 07:34:30;;;;;;;4.87;1.63;;;4.80;99.90;;;;;;6111189;23;20391;-70
2023/03/27 07:37:16;;;;;;;9.20;2.20;;;4.90;99.90;;;;;;6102379;23;20415;-73
2023/03/27 07:40:08;;;;;;;5.10;2.50;;;4.90;99.90;;;;;;6109788;23;20440;-70
2023/03/27 07:42:35;;;;;;;5.10;2.20;;;4.90;99.90;;;;;;6108814;23;20511;-70
2023/03/27 07:45:04;;;;;;;9.73;2.37;;;4.80;99.90;;;;;;6110492;23;20404;-70
2023/03/27 07:47:31;;;;;;;7.23;2.60;;;4.80;99.90;;;;;;6117444;23;20372;-69
2023/03/27 07:49:56;;;;;;;6.07;2.23;;;5.00;99.90;;;;;;6085582;23;20385;-70
2023/03/27 07:52:22;;;;;;;11.70;2.07;;;4.90;99.90;;;;;;6120585;23;20458;-71
2023/03/27 07:54:55;;;;;;;2.73;1.73;;;4.90;99.90;;;;;;6086512;23;20211;-70
2023/03/27 07:57:23;;;;;;;12.20;3.13;;;4.90;99.90;;;;;;6083695;23;20442;-71
2023/03/27 07:59:51;;;;;;;12.70;2.17;;;4.90;99.90;;;;;;6110812;23;20471;-70
2023/03/27 08:02:26;;;;;;;4.83;2.00;;;5.00;99.90;;;;;;6084914;23;20789;-71
2023/03/27 08:04:52;;;;;;;4.93;1.60;;;5.00;99.90;;;;;;6107873;23;20428;-71
2023/03/27 08:07:20;;;;;;;8.13;1.87;;;5.10;99.90;;;;;;6084360;23;20204;-70
2023/03/27 08:09:47;;;;;;;6.80;1.53;;;5.10;98.00;;;;;;6108509;23;20377;-69
2023/03/27 08:12:14;;;;;;;2.23;1.40;;;5.30;97.90;;;;;;6109584;23;20424;-69
2023/03/27 08:14:45;;;;;;;6.33;1.90;;;5.30;96.40;;;;;;6109703;23;20416;-70
2023/03/27 08:17:26;;;;;;;7.77;1.40;;;5.40;95.60;;;;;;6087461;23;20412;-72
2023/03/27 08:19:52;;;;;;;5.43;1.80;;;5.60;93.60;;;;;;6106501;23;20469;-72
2023/03/27 08:22:20;;;;;;;8.23;1.67;;;5.70;94.10;;;;;;6082337;23;20844;-70
2023/03/27 08:25:06;;;;;;;8.37;2.50;;;5.80;92.90;;;;;;6119233;23;20397;-70
2023/03/27 08:27:33;;;;;;;6.53;2.27;;;5.90;92.30;;;;;;6084239;23;20453;-70
2023/03/27 08:30:00;;;;;;;3.40;1.80;;;5.90;93.20;;;;;;6084673;23;20431;-72
2023/03/27 08:32:26;;;;;;;4.00;1.50;;;6.00;91.70;;;;;;6084949;23;20191;-72
2023/03/27 08:34:55;;;;;;;5.40;1.70;;;6.20;88.00;;;;;;6056653;23;20404;-72
2023/03/27 08:37:22;;;;;;;4.07;1.50;;;6.20;84.80;;;;;;6057795;23;20465;-70
2023/03/27 08:40:26;;;;;;;5.93;1.60;;;6.30;82.50;;;;;;6059348;23;20418;-71
2023/03/27 08:43:20;;;;;;;8.83;1.80;;;6.50;80.00;;;;;;6056230;23;20457;-70
2023/03/27 08:45:52;;;;;;;6.10;1.80;;;6.60;73.60;;;;;;6033824;23;20400;-72
2023/03/27 08:48:30;;;;;;;6.20;3.07;;;6.70;73.00;;;;;;6054705;23;20412;-71
2023/03/27 08:51:04;;;;;;;9.47;2.10;;;7.00;68.90;;;;;;6066081;23;20381;-71
2023/03/27 08:53:36;;;;;;;9.07;1.40;;;7.10;63.00;;;;;;6056922;23;20463;-72
2023/03/27 08:56:04;;;;;;;7.70;1.73;;;7.10;63.30;;;;;;6059197;23;20389;-69
2023/03/27 08:58:39;;;;;;;6.17;2.50;;;7.20;61.40;;;;;;6061264;23;20424;-72
2023/03/27 09:01:29;;;;;;;5.80;2.20;;;7.40;59.60;;;;;;6060523;23;20409;-70
2023/03/27 09:04:42;;;;;;;3.10;1.43;;;7.50;58.80;;;;;;6037009;23;20432;-71
2023/03/27 09:07:58;;;;;;;3.70;1.60;;;7.50;57.50;;;;;;5998475;23;20460;-72
2023/03/27 09:10:55;;;;;;;7.67;2.17;;;7.30;58.10;;;;;;6017260;23;20391;-71
2023/03/27 09:13:49;;;;;;;5.53;1.97;;;7.10;62.90;;;;;;5998397;24;20423;-72
2023/03/27 09:16:34;;;;;;;11.20;1.90;;;6.90;66.20;;;;;;6021767;23;20403;-72
2023/03/27 09:19:12;;;;;;;2.53;1.27;;;6.90;69.40;;;;;;6032094;23;20440;-72
2023/03/27 09:21:48;;;;;;;6.33;1.77;;;6.80;70.40;;;;;;6022674;23;20423;-71
2023/03/27 09:24:27;;;;;;;2.47;1.20;;;6.80;69.00;;;;;;6019375;23;20388;-71
2023/03/27 09:27:23;;;;;;;11.40;4.40;;;6.80;67.10;;;;;;5999088;24;20389;-72
2023/03/27 09:30:18;;;;;;;4.67;2.00;;;6.90;65.10;;;;;;5998976;24;20440;-71
2023/03/27 09:32:52;;;;;;;4.53;2.23;;;7.10;64.40;;;;;;6021956;23;20434;-70
2023/03/27 09:35:20;;;;;;;3.67;1.57;;;7.60;61.80;;;;;;6022419;23;20404;-71
2023/03/27 09:38:02;;;;;;;6.40;2.37;;;7.70;59.90;;;;;;5999635;24;20385;-72
2023/03/27 09:40:55;;;;;;;7.87;2.40;;;7.80;58.50;;;;;;6000453;23;20392;-73
2023/03/27 09:43:28;;;;;;;6.47;2.27;;;7.70;56.40;;;;;;5996353;24;20435;-71
2023/03/27 09:46:01;;;;;;;3.73;2.17;;;7.60;56.50;;;;;;6019951;23;20689;-70
2023/03/27 09:48:34;;;;;;;5.67;1.70;;;7.60;55.50;;;;;;6023424;23;20420;-71
2023/03/27 09:51:04;;;;;;;4.10;1.40;;;7.60;55.90;;;;;;6020774;23;20391;-73
2023/03/27 09:53:37;;;;;;;4.30;1.40;;;7.80;53.50;;;;;;5999148;24;20419;-71
2023/03/27 09:56:23;;;;;;;6.30;1.40;;;7.90;52.20;;;;;;5999721;24;20397;-72
2023/03/27 09:58:52;;;;;;;3.93;1.70;;;8.00;51.60;;;;;;6000401;24;20392;-72
2023/03/27 10:01:36;;;;;;;5.43;2.43;;;8.30;51.60;;;;;;6010274;24;20431;-71
2023/03/27 10:04:15;;;;;;;7.73;2.27;;;8.40;51.90;;;;;;5999121;24;20413;-70
2023/03/27 10:06:49;;;;;;;5.80;1.80;;;8.30;49.90;;;;;;6000480;24;20455;-72
2023/03/27 10:09:25;;;;;;;4.80;2.27;;;8.10;48.70;;;;;;5996829;24;20432;-71
2023/03/27 10:12:18;;;;;;;7.30;2.00;;;7.70;49.80;;;;;;6021885;23;20407;-72
2023/03/27 10:14:49;;;;;;;5.83;1.90;;;7.90;50.60;;;;;;6025351;23;20384;-71
2023/03/27 10:17:25;;;;;;;5.03;1.83;;;8.20;50.80;;;;;;5996051;24;20418;-71
2023/03/27 10:20:19;;;;;;;4.53;1.70;;;8.30;51.00;;;;;;6001747;24;20416;-73
2023/03/27 10:22:58;;;;;;;2.80;1.43;;;8.40;50.70;;;;;;6027482;23;20411;-73
2023/03/27 10:25:33;;;;;;;8.63;2.50;;;8.20;51.90;;;;;;6023622;23;20396;-72
2023/03/27 10:28:29;;;;;;;7.80;1.83;;;8.30;51.90;;;;;;6030951;23;20381;-72
2023/03/27 10:31:30;;;;;;;5.50;2.17;;;8.40;51.30;;;;;;6001579;24;20849;-72
2023/03/27 10:34:38;;;;;;;2.60;1.70;;;8.50;51.30;;;;;;6000717;24;20425;-72
2023/03/27 10:37:33;;;;;;;4.87;2.03;;;8.80;50.40;;;;;;6010653;24;20404;-71
2023/03/27 10:40:27;;;;;;;8.10;2.20;;;8.70;49.80;;;;;;6020371;23;20388;-70
2023/03/27 10:43:01;;;;;;;5.43;1.73;;;8.60;50.10;;;;;;6021974;23;20411;-71
2023/03/27 10:45:29;;;;;;;8.20;2.70;;;8.30;50.70;;;;;;6000201;24;20443;-71
2023/03/27 10:48:00;;;;;;;4.77;1.97;;;8.00;51.50;;;;;;5999280;24;20391;-70
2023/03/27 10:50:32;;;;;;;7.07;1.80;;;7.80;51.60;;;;;;6023602;23;20471;-71
2023/03/27 10:53:12;;;;;;;7.50;2.93;;;7.70;52.20;;;;;;6022905;23;20491;-70
2023/03/27 10:55:50;;;;;;;8.07;4.03;;;7.80;52.90;;;;;;6023015;23;20826;-72
2023/03/27 10:58:42;;;;;;;5.03;2.20;;;7.80;51.30;;;;;;6022934;23;20439;-72
2023/03/27 11:01:19;;;;;;;8.30;2.23;;;7.70;50.60;;;;;;6000685;24;20389;-72
2023/03/27 11:04:07;;;;;;;6.27;2.57;;;8.00;51.00;;;;;;6022070;23;20407;-72
2023/03/27 11:06:44;;;;;;;5.77;2.37;;;8.10;51.20;;;;;;6025156;23;20440;-72
2023/03/27 11:09:28;;;;;;;7.83;2.23;;;8.30;50.50;;;;;;6024592;23;20471;-71
2023/03/27 11:12:08;;;;;;;6.50;1.80;;;8.30;50.50;;;;;;6026218;23;20420;-72
2023/03/27 11:15:18;;;;;;;5.50;1.87;;;8.60;49.90;;;;;;6029999;23;20475;-72
2023/03/27 11:18:21;;;;;;;3.50;1.30;;;8.90;48.80;;;;;;5949522;24;20398;-72
2023/03/27 11:21:18;;;;;;;3.93;1.90;;;9.00;47.30;;;;;;5944469;24;20393;-71
2023/03/27 11:24:02;;;;;;;8.83;1.50;;;9.30;47.60;;;;;;5942250;24;20394;-72
2023/03/27 11:27:03;;;;;;;7.10;2.10;;;9.20;47.90;;;;;;5946985;24;20465;-73
2023/03/27 11:29:36;;;;;;;4.77;1.50;;;9.10;48.60;;;;;;5931388;24;20386;-72
2023/03/27 11:32:38;;;;;;;2.20;1.30;;;8.60;48.70;;;;;;5954123;24;20435;-72
2023/03/27 11:35:23;;;;;;;6.17;1.70;;;8.70;49.60;;;;;;5898929;24;20434;-73
2023/03/27 11:38:17;;;;;;;2.57;1.40;;;8.80;49.60;;;;;;5919241;24;20390;-73
2023/03/27 11:40:46;;;;;;;6.47;1.70;;;9.00;49.50;;;;;;5940642;24;20402;-72
2023/03/27 11:43:14;;;;;;;3.60;1.37;;;9.20;48.80;;;;;;5965143;24;20477;-71
2023/03/27 11:45:49;;;;;;;3.63;1.63;;;9.20;47.60;;;;;;5950007;24;20390;-72
2023/03/27 11:48:42;;;;;;;3.53;1.30;;;9.20;48.30;;;;;;5942199;24;20477;-72
2023/03/27 11:51:30;;;;;;;3.77;1.33;;;9.20;48.50;;;;;;5944695;24;20398;-72
2023/03/27 11:54:20;;;;;;;5.50;1.53;;;9.40;47.30;;;;;;5971081;24;20419;-72
2023/03/27 11:57:01;;;;;;;6.33;2.67;;;9.70;47.40;;;;;;5999277;24;20380;-72
2023/03/27 11:59:55;;;;;;;5.87;1.73;;;9.90;46.40;;;;;;6020069;23;20384;-72
2023/03/27 12:02:45;;;;;;;4.50;1.30;;;9.80;46.60;;;;;;6022291;23;20697;-71
2023/03/27 12:05:58;;;;;;;8.77;1.50;;;9.60;47.20;;;;;;6009935;24;20440;-72
2023/03/27 12:08:42;;;;;;;5.33;1.53;;;9.00;55.20;;;;;;6022942;23;20404;-72
2023/03/27 12:11:11;;;;;;;4.67;1.40;;;8.10;72.80;;;;;;6022570;23;20384;-72
2023/03/27 12:13:49;;;;;;;3.50;1.30;;;7.20;90.40;;;;;;5976830;24;20427;-71
2023/03/27 12:16:46;;;;;;;4.40;1.67;;;6.40;98.50;;;;;;6020445;23;20380;-71
2023/03/27 12:19:33;;;;;;;6.77;1.70;;;5.80;99.90;;;;;;6020959;23;20380;-72
2023/03/27 12:22:21;;;;;;;6.20;1.57;;;5.60;99.90;;;;;;6019858;23;20693;-72
2023/03/27 12:25:31;;;;;;;2.73;1.50;;;5.50;99.90;;;;;;5999145;24;20399;-71
2023/03/27 12:28:52;;;;;;;3.37;1.90;;;5.40;99.90;;;;;;5950912;24;20377;-71
2023/03/27 12:31:40;;;;;;;5.30;1.77;;;5.40;99.90;;;;;;5940453;24;20418;-71
2023/03/27 12:34:16;;;;;;;5.37;2.73;;;5.40;99.90;;;;;;5941412;24;20378;-72
2023/03/27 12:36:46;;;;;;;3.30;1.60;;;5.50;99.90;;;;;;5919228;24;20665;-71
2023/03/27 12:39:23;;;;;;;6.63;1.23;;;5.70;99.90;;;;;;5920530;24;20390;-71
2023/03/27 12:41:49;;;;;;;4.17;1.50;;;5.90;99.90;;;;;;5941420;24;20466;-73
2023/03/27 12:44:28;;;;;;;4.30;1.30;;;5.90;99.90;;;;;;5940210;24;20382;-71
2023/03/27 12:47:22;;;;;;;2.13;1.00;;;5.80;99.90;;;;;;5941126;24;20382;-71
2023/03/27 12:50:08;;;;;;;3.57;0.80;;;5.50;97.60;;;;;;5941512;24;20381;-70
2023/03/27 12:52:38;;;;;;;3.00;0.93;;;5.40;97.10;;;;;;5941567;24;20462;-71
2023/03/27 12:55:19;;;;;;;2.23;1.20;;;5.40;96.50;;;;;;5943528;24;20420;-72
2023/03/27 12:58:08;;;;;;;1.50;1.13;;;5.50;85.60;;;;;;5942232;24;20390;-71
2023/03/27 13:00:53;;;;;;;5.20;2.70;;;5.60;90.70;;;;;;5949800;24;20378;-71
2023/03/27 13:03:50;;;;;;;5.87;1.37;;;5.90;74.30;;;;;;5894523;24;20906;-70
2023/03/27 13:06:38;;;;;;;3.63;1.23;;;6.30;76.70;;;;;;5995954;24;20515;-70
2023/03/27 13:09:51;;;;;;;4.10;1.23;;;6.60;62.10;;;;;;6022175;23;20400;-71
2023/03/27 13:12:27;;;;;;;2.30;1.00;;;6.80;63.80;;;;;;6021136;23;20499;-70
2023/03/27 13:15:28;;;;;;;4.20;1.00;;;7.00;66.40;;;;;;6023783;23;20658;-72
2023/03/27 13:18:38;;;;;;;2.03;1.17;;;7.10;67.60;;;;;;6021657;23;20408;-71
2023/03/27 13:21:41;;;;;;;2.47;1.10;;;7.40;63.50;;;;;;6021904;23;20407;-70
2023/03/27 13:24:15;;;;;;;3.20;1.30;;;7.70;63.30;;;;;;6021825;23;20400;-70
2023/03/27 13:27:07;;;;;;;3.90;1.27;;;8.10;59.60;;;;;;6021959;23;20383;-72
2023/03/27 13:29:36;;;;;;;4.07;1.93;;;8.40;55.00;;;;;;5997487;24;20392;-70
2023/03/27 13:32:32;;;;;;;3.70;1.43;;;8.70;55.50;;;;;;6023084;23;20424;-72
2023/03/27 13:35:20;;;;;;;3.10;1.00;;;8.70;54.20;;;;;;6022543;23;20396;-72
2023/03/27 13:37:56;;;;;;;1.17;0.70;;;8.40;56.70;;;;;;6027397;23;20368;-72
2023/03/27 13:40:54;;;;;;;1.83;1.03;;;7.90;59.50;;;;;;6016193;23;20392;-70
2023/03/27 13:43:29;;;;;;;4.60;1.20;;;7.40;70.00;;;;;;6021756;23;20528;-72
2023/03/27 13:46:05;;;;;;;4.20;0.87;;;7.20;74.60;;;;;;6023572;23;20384;-72